Lundys Lane, Pennsylvania
Current Conditions -  °F | °C
As of 12:25 PM on Sunday 23 Nov 2014 (Local Time) from KHZY Reporting Station
Broken Clouds Broken Clouds  
Wind Chill: 45°   Ceiling: 10000
Heat Index: 49°   Visibility: 10mi
Dew Point: 38°   Wind: 8mph
Humidity: 66%   Direction: 170°S
Pressure: 29.97"   Gusts: NA
Location:  41.8831°N, 80.4041°W
Report Text: KHZY 231725Z AUTO 17007KT 10SM SCT028 SCT080 BKN100 09/03 A2997 RMK AO2 T00940033
Loading
Personal Weather Stations






























Interactive Weather Map New forecast layout! Learn more

10-Day Weather Forecast

Advertisements
Track Severe Weather on mobile